Monterrey Gen Maria, Mexico

9:22 AM EST on February 09, 2016 (GMT -0500)
Gen Mariano Escobedo International | | Change Station
CLOSE
Current Station
Airport
Location: Monterrey Gen Maria,
Elevation: 1270 ft
Nearby Weather Stations

Elev 1270 ft 25.78 °N, 100.11 °W | Updated 32 minutes ago

Mostly Cloudy
Mostly Cloudy
46 °F
Feels Like 42 °F
N
8
Wind Variable Wind from WNW

Today
High -- | Low -- °F
--% Chance of Precip.
Yesterday
High -- | Low -- °F
Precip. -- in
Pressure 30.42 in
Visibility 15.0 miles
Clouds Scattered Clouds 10000 ft
Mostly Cloudy 20000 ft
Windchill 42 °F
Dew Point 25 °F
Humidity 43%
Rainfall 0.00 in
Snow Depth Not available.
8:19 AM 7:29 PM
New Moon, 1% visible
METAR MMMY 091350Z 30007KT 15SM SCT100 BKN200 08/M04 A3042 RMK 8/072
Pressure 30.42 in
Visibility 15.0 miles
Clouds Scattered Clouds 10000 ft
Mostly Cloudy 20000 ft
Windchill 42 °F
Dew Point 25 °F
Humidity 43%
Rainfall 0.00 in
Snow Depth Not available.
8:19 AM 7:29 PM
New Moon, 1% visible
METAR MMMY 091350Z 30007KT 15SM SCT100 BKN200 08/M04 A3042 RMK 8/072

10-Day Weather Forecast

No radar image for this location.
×

Almanac

Astronomy

Feb. 09, 2016 Rise Set
Actual Time
Civil Twilight
Nautical Twilight
Astronomical Twilight
Moon
Length of Visible Light
Length of Day
Tomorrow will be .
, % of the Moon is Illuminated

Today's Extremes

Country Highs Country Lows

Community

WunderPhotos

Upload Photos

1,891,602 photos uploaded!

WunderBlog® & News

Nearby

Air Quality

  Air Quality AQ Index Pollutant
Not available.

Snow Depth

Station Depth Elevation

Earthquake Activity

City Distance Mag. Time & Date
Minimum magnitude displayed is 2.5.

Coastal Water Temperatures

Place Temperature

Stations

Nearby Weather Stations

Station Location Temp. Windchill Dew Point Humidity Wind Precip. Elev Updated Type